.
WxDataArchive / Data Records for 2010-08-15
2010-08-14 August 2010 2010-08-16

Data Records for Sunday, 15 August 2010

Time	Temp	Chill	HIndex	Humid	Dewpt	 Wind 	HiWind	WindDir	Rain 	Barom 
-----	----	-----	------	-----	-----	------	------	-------	-----	----- 
00:00	73.3	73.3	73.3	91	70.5	0	0	---	0.00	29.872 
00:05	73.2	73.2	73.2	92	70.7	0	0	---	0.00	29.872 
00:10	73.2	73.2	73.2	92	70.7	0	0	---	0.00	29.872 
00:15	73.0	73.0	73.0	92	70.5	0	0	---	0.00	29.876 
00:20	73.0	73.0	73.0	92	70.5	0	0	---	0.00	29.876 
00:25	72.8	72.8	72.8	92	70.3	0	0	---	0.00	29.876 
00:30	72.8	72.8	72.8	92	70.3	0	0	---	0.00	29.875 
00:35	72.8	72.8	72.8	92	70.3	0	0	---	0.00	29.875 
00:40	72.7	72.7	72.7	92	70.2	0	0	---	0.00	29.875 
00:45	72.7	72.7	72.7	93	70.6	0	0	---	0.00	29.878 
00:50	72.5	72.5	72.5	93	70.4	0	0	---	0.00	29.878 
00:55	72.5	72.5	72.5	93	70.4	0	0	---	0.00	29.878 
01:00	72.5	72.5	72.5	93	70.4	0	0	---	0.00	29.880 
01:05	72.3	72.3	72.3	93	70.2	0	0	---	0.00	29.880 
01:10	72.3	72.3	72.3	93	70.2	0	0	---	0.00	29.880 
01:15	72.1	72.1	72.1	93	70.0	0	0	---	0.00	29.879 
01:20	72.1	72.1	72.1	93	70.0	0	0	---	0.00	29.879 
01:25	72.0	72.0	72.0	93	69.9	0	0	---	0.00	29.879 
01:30	72.0	72.0	72.0	94	70.2	0	0	---	0.00	29.875 
01:35	72.0	72.0	72.0	94	70.2	0	0	---	0.00	29.875 
01:40	72.0	72.0	72.0	94	70.2	0	0	---	0.00	29.875 
01:45	72.0	72.0	72.0	94	70.2	0	0	---	0.00	29.878 
01:50	72.0	72.0	72.0	94	70.2	0	0	---	0.00	29.878 
01:55	72.0	72.0	72.0	94	70.2	0	0	---	0.00	29.878 
02:00	72.1	72.1	72.1	94	70.3	0	0	---	0.00	29.875 
02:05	72.3	72.3	72.3	94	70.5	0	0	---	0.00	29.875 
02:10	72.3	72.3	72.3	95	70.8	0	0	---	0.00	29.875 
02:15	72.5	72.5	72.5	95	71.0	0	0	---	0.00	29.874 
02:20	72.7	72.7	72.7	95	71.2	0	0	---	0.00	29.874 
02:25	72.7	72.7	72.7	95	71.2	0	0	---	0.00	29.874 
02:30	72.8	72.8	72.8	95	71.3	0	0	---	0.00	29.870 
02:35	72.8	72.8	72.8	95	71.3	0	0	---	0.00	29.870 
02:40	72.8	72.8	72.8	95	71.3	0	0	---	0.00	29.870 
02:45	72.8	72.8	72.8	95	71.3	0	0	---	0.00	29.866 
02:50	72.8	72.8	72.8	95	71.3	0	0	---	0.00	29.866 
02:55	72.7	72.7	72.7	95	71.2	0	0	---	0.00	29.866 
03:00	72.7	72.7	72.7	95	71.2	0	0	---	0.00	29.862 
03:05	72.7	72.7	72.7	95	71.2	0	0	---	0.00	29.862 
03:10	72.7	72.7	72.7	95	71.2	0	0	---	0.00	29.862 
03:15	72.7	72.7	72.7	95	71.2	0	0	---	0.00	29.858 
03:20	72.7	72.7	72.7	95	71.2	0	0	---	0.00	29.858 
03:25	72.7	72.7	72.7	95	71.2	0	0	---	0.00	29.858 
03:30	72.8	72.8	72.8	95	71.3	0	0	---	0.00	29.857 
03:35	72.8	72.8	72.8	95	71.3	0	0	---	0.00	29.857 
03:40	72.8	72.8	72.8	95	71.3	0	0	---	0.00	29.857 
03:45	72.8	72.8	72.8	95	71.3	0	0	---	0.00	29.857 
03:50	72.8	72.8	72.8	95	71.3	0	0	---	0.00	29.857 
03:55	72.8	72.8	72.8	95	71.3	0	0	---	0.00	29.857 
04:00	72.8	72.8	72.8	95	71.3	0	0	---	0.00	29.853 
04:05	72.8	72.8	72.8	95	71.3	0	0	---	0.00	29.853 
04:10	72.8	72.8	72.8	95	71.3	0	0	---	0.00	29.853 
04:15	72.8	72.8	72.8	95	71.3	0	0	---	0.00	29.847 
04:20	72.8	72.8	72.8	95	71.3	0	0	---	0.00	29.847 
04:25	72.7	72.7	72.7	95	71.2	0	0	---	0.00	29.847 
04:30	72.7	72.7	72.7	95	71.2	0	0	---	0.00	29.843 
04:35	72.5	72.5	72.5	95	71.0	0	0	---	0.00	29.843 
04:40	72.5	72.5	72.5	95	71.0	0	0	---	0.00	29.843 
04:45	72.3	72.3	72.3	95	70.8	0	0	---	0.00	29.836 
04:50	72.1	72.1	72.1	95	70.6	0	0	---	0.00	29.836 
04:55	72.1	72.1	72.1	95	70.6	0	0	---	0.00	29.836 
05:00	72.0	72.0	72.0	95	70.5	0	0	---	0.00	29.831 
05:05	72.0	72.0	72.0	95	70.5	0	0	---	0.00	29.831 
05:10	71.8	71.8	71.8	95	70.3	0	0	---	0.00	29.831 
05:15	71.6	71.6	71.6	95	70.1	0	0	---	0.00	29.832 
05:20	71.6	71.6	71.6	95	70.1	0	0	---	0.00	29.832 
05:25	71.6	71.6	71.6	95	70.1	0	0	---	0.00	29.832 
05:30	71.5	71.5	71.5	95	70.0	0	0	---	0.00	29.838 
05:35	71.3	71.3	71.3	95	69.8	0	0	---	0.00	29.838 
05:40	71.3	71.3	71.3	95	69.8	0	0	---	0.00	29.838 
05:45	71.1	71.1	71.1	95	69.6	0	0	---	0.00	29.835 
05:50	70.9	70.9	70.9	95	69.4	0	0	---	0.00	29.835 
05:55	70.9	70.9	70.9	95	69.4	0	0	---	0.00	29.835 
06:00	70.9	70.9	70.9	95	69.4	0	0	---	0.00	29.840 
06:05	70.9	70.9	70.9	95	69.4	0	0	---	0.00	29.840 
06:10	70.8	70.8	70.8	95	69.3	0	0	---	0.00	29.840 
06:15	70.6	70.6	70.6	95	69.1	0	0	---	0.00	29.844 
06:20	70.6	70.6	70.6	95	69.1	0	0	---	0.00	29.844 
06:25	70.6	70.6	70.6	95	69.1	0	0	---	0.00	29.844 
06:30	70.4	70.4	70.4	95	68.9	0	0	---	0.00	29.848 
06:35	70.4	70.4	70.4	95	68.9	0	0	---	0.00	29.848 
06:40	70.4	70.4	70.4	96	69.2	0	0	---	0.00	29.848 
06:45	70.3	70.3	70.3	95	68.8	0	0	---	0.00	29.854 
06:50	70.3	70.3	70.3	95	68.8	0	0	---	0.00	29.854 
06:55	70.3	70.3	70.3	96	69.1	0	0	---	0.00	29.854 
07:00	70.3	70.3	70.3	96	69.1	0	0	---	0.00	29.851 
07:05	70.3	70.3	70.3	96	69.1	0	0	---	0.00	29.851 
07:10	70.3	70.3	70.3	96	69.1	0	0	---	0.00	29.851 
07:15	70.4	70.4	70.4	96	69.2	0	0	---	0.00	29.860 
07:20	70.4	70.4	70.4	96	69.2	0	0	---	0.00	29.860 
07:25	70.4	70.4	70.4	96	69.2	0	0	---	0.00	29.860 
07:30	70.6	70.6	70.6	96	69.4	0	0	---	0.00	29.863 
07:35	70.8	70.8	70.8	96	69.6	0	0	---	0.00	29.863 
07:40	71.1	71.1	71.1	96	69.9	0	0	---	0.00	29.863 
07:45	71.6	71.6	71.6	96	70.4	0	0	---	0.00	29.861 
07:50	72.0	72.0	72.0	96	70.8	0	0	---	0.00	29.861 
07:55	72.5	72.5	72.5	96	71.3	0	0	---	0.00	29.861 
08:00	72.8	72.8	72.8	96	71.6	0	0	---	0.00	29.863 
08:05	73.2	73.2	73.2	96	72.0	0	0	---	0.00	29.863 
08:10	73.5	73.5	73.5	96	72.3	0	0	---	0.00	29.863 
08:15	73.5	73.5	73.5	96	72.3	0	0	---	0.00	29.867 
08:20	73.9	73.9	73.9	96	72.7	0	0	---	0.00	29.867 
08:25	74.0	74.0	74.0	96	72.8	0	0	---	0.00	29.867 
08:30	74.2	74.2	74.2	96	73.0	0	0	---	0.00	29.876 
08:35	74.7	74.7	74.7	96	73.5	0	0	---	0.00	29.876 
08:40	75.1	75.1	73.2	96	73.9	0	0	---	0.00	29.876 
08:45	75.4	75.4	74.1	95	73.9	0	0	---	0.00	29.878 
08:50	75.6	75.6	74.5	95	74.1	0	0	---	0.00	29.878 
08:55	76.0	76.0	75.6	94	74.1	0	0	---	0.00	29.878 
09:00	76.3	76.3	76.3	94	74.4	0	0	---	0.00	29.875 
09:05	76.5	76.5	76.9	92	74.0	0	0	---	0.00	29.875 
09:10	77.0	77.0	78.2	90	73.8	0	1	315	0.00	29.875 
09:15	77.6	77.6	79.6	88	73.8	0	1	315	0.00	29.877 
09:20	78.3	78.3	81.1	86	73.8	0	2	315	0.00	29.877 
09:25	78.8	78.8	82.1	84	73.5	0	2	315	0.00	29.877 
09:30	79.6	79.6	83.5	81	73.2	0	1	315	0.00	29.874 
09:35	80.3	80.3	84.9	80	73.5	0	3	315	0.00	29.874 
09:40	80.9	80.9	86.0	79	73.8	0	3	315	0.00	29.874 
09:45	81.1	81.1	86.1	77	73.2	1	3	315	0.00	29.873 
09:50	81.4	81.4	86.7	77	73.5	1	3	315	0.00	29.873 
09:55	81.6	81.6	86.9	76	73.3	0	2	315	0.00	29.873 
10:00	82.0	82.0	88.0	77	74.1	0	1	315	0.00	29.874 
10:05	82.0	82.0	87.6	75	73.3	0	2	315	0.00	29.874 
10:10	82.0	82.0	87.8	76	73.7	0	2	315	0.00	29.874 
10:15	82.2	82.2	87.8	74	73.1	0	2	315	0.00	29.875 
10:20	82.6	82.6	88.4	73	73.0	0	3	315	0.00	29.875 
10:25	83.0	83.0	88.9	72	73.0	1	2	22	0.00	29.875 
10:30	83.0	83.0	89.2	73	73.4	1	3	22	0.00	29.873 
10:35	83.4	83.4	90.1	73	73.8	0	2	22	0.00	29.873 
10:40	84.0	84.0	90.8	71	73.6	0	2	338	0.00	29.873 
10:45	84.5	84.5	91.6	70	73.6	1	3	225	0.00	29.874 
10:50	84.7	84.7	92.4	71	74.2	1	3	338	0.00	29.874 
10:55	84.9	84.9	91.7	68	73.1	1	3	292	0.00	29.874 
11:00	85.1	85.1	92.6	69	73.8	0	1	292	0.00	29.873 
11:05	84.9	84.9	92.1	69	73.6	0	2	292	0.00	29.873 
11:10	84.5	84.5	91.2	69	73.2	0	1	292	0.00	29.873 
11:15	84.1	84.1	90.4	69	72.8	0	1	292	0.00	29.877 
11:20	84.7	84.7	91.7	69	73.4	0	2	292	0.00	29.877 
11:25	85.1	85.1	92.2	68	73.3	0	2	270	0.00	29.877 
11:30	85.1	85.1	91.5	66	72.4	0	2	315	0.00	29.877 
11:35	84.9	84.9	90.7	65	71.8	1	3	315	0.00	29.877 
11:40	84.9	84.9	91.4	67	72.7	0	2	315	0.00	29.877 
11:45	84.7	84.7	90.6	66	72.1	1	3	315	0.00	29.881 
11:50	84.5	84.5	89.9	65	71.4	0	1	315	0.00	29.881 
11:55	84.9	84.9	91.4	67	72.7	1	3	315	0.00	29.881 
12:00	85.5	85.5	91.6	64	71.9	1	3	315	0.00	29.877 
12:05	85.5	85.5	91.6	64	71.9	1	3	270	0.00	29.877 
12:10	85.3	85.3	91.5	65	72.2	1	5	292	0.00	29.877 
12:15	85.9	85.9	92.4	64	72.3	1	4	292	0.00	29.877 
12:20	86.7	86.7	93.7	63	72.6	1	4	292	0.00	29.877 
12:25	87.6	87.6	94.3	60	72.0	1	3	270	0.00	29.877 
12:30	88.2	88.2	95.1	59	72.0	1	3	292	0.00	29.874 
12:35	88.4	88.4	95.1	58	71.7	2	4	292	0.00	29.874 
12:40	88.0	88.0	93.8	57	70.8	2	4	292	0.00	29.874 
12:45	87.6	87.6	93.9	59	71.5	2	3	292	0.00	29.869 
12:50	87.8	87.8	93.8	58	71.1	1	3	292	0.00	29.869 
12:55	87.8	87.8	93.8	58	71.1	1	3	292	0.00	29.869 
13:00	87.8	87.8	94.7	60	72.1	1	3	292	0.00	29.864 
13:05	88.6	88.6	95.0	57	71.4	2	5	292	0.00	29.864 
13:10	88.6	88.6	95.0	57	71.4	2	4	270	0.00	29.864 
13:15	89.0	89.0	95.4	56	71.2	2	5	270	0.00	29.866 
13:20	88.8	88.8	94.5	55	70.5	1	3	270	0.00	29.866 
13:25	88.6	88.6	95.0	57	71.4	1	3	270	0.00	29.866 
13:30	88.2	88.2	94.7	58	71.5	0	2	338	0.00	29.859 
13:35	88.0	88.0	94.3	58	71.3	0	2	338	0.00	29.859 
13:40	88.0	88.0	94.7	59	71.8	1	3	338	0.00	29.859 
13:45	88.2	88.2	95.1	59	72.0	1	3	315	0.00	29.859 
13:50	89.0	89.0	95.9	57	71.7	1	3	248	0.00	29.859 
13:55	89.5	89.5	95.9	55	71.2	1	3	338	0.00	29.859 
14:00	89.7	89.7	96.9	56	71.9	2	5	338	0.00	29.850 
14:05	90.1	90.1	96.7	54	71.2	1	4	315	0.00	29.850 
14:10	90.1	90.1	96.2	53	70.6	1	3	292	0.00	29.850 
14:15	89.7	89.7	95.9	54	70.8	1	4	315	0.00	29.847 
14:20	89.3	89.3	95.1	54	70.4	2	5	270	0.00	29.847 
14:25	88.2	88.2	92.9	54	69.4	1	4	315	0.00	29.847 
14:30	86.3	86.3	89.6	54	67.7	2	4	270	0.00	29.846 
14:35	86.1	86.1	90.9	59	70.1	2	4	270	0.00	29.846 
14:40	86.3	86.3	91.3	59	70.2	1	3	292	0.00	29.846 
14:45	87.0	87.0	92.7	59	70.9	2	5	292	0.00	29.848 
14:50	87.6	87.6	93.4	58	71.0	1	3	338	0.00	29.848 
14:55	88.0	88.0	92.2	53	68.7	2	5	292	0.00	29.848 
15:00	88.2	88.2	92.1	52	68.3	2	5	338	0.00	29.844 
15:05	88.4	88.4	91.7	50	67.4	2	3	292	0.00	29.844 
15:10	88.6	88.6	92.1	50	67.5	1	3	315	0.00	29.844 
15:15	88.8	88.8	92.4	50	67.7	1	3	338	0.00	29.843 
15:20	89.5	89.5	93.7	50	68.4	1	3	315	0.00	29.843 
15:25	89.9	89.9	94.9	51	69.3	0	2	270	0.00	29.843 
15:30	90.1	90.1	94.8	50	68.9	1	3	270	0.00	29.840 
15:35	90.5	90.5	95.5	50	69.3	0	2	292	0.00	29.840 
15:40	90.7	90.7	96.4	51	70.0	1	4	292	0.00	29.840 
15:45	90.7	90.7	95.9	50	69.5	0	3	292	0.00	29.823 
15:50	90.3	90.3	96.1	52	70.2	0	2	292	0.00	29.823 
15:55	89.5	89.5	95.5	54	70.6	0	2	292	0.00	29.823 
16:00	88.6	88.6	95.0	57	71.4	0	1	292	0.00	29.826 
16:05	87.4	87.4	93.5	59	71.3	1	4	292	0.00	29.826 
16:10	86.5	86.5	92.5	61	71.4	0	2	292	0.00	29.826 
16:15	86.1	86.1	92.0	62	71.5	1	3	292	0.00	29.840 
16:20	85.1	85.1	89.8	61	70.1	2	5	248	0.00	29.840 
16:25	84.3	84.3	87.8	59	68.4	1	4	270	0.00	29.840 
16:30	84.1	84.1	87.7	60	68.7	1	4	270	0.00	29.837 
16:35	84.7	84.7	88.7	60	69.2	0	1	315	0.00	29.837 
16:40	85.5	85.5	89.2	57	68.5	0	1	315	0.00	29.837 
16:45	86.3	86.3	90.9	58	69.7	0	2	315	0.00	29.829 
16:50	87.2	87.2	92.7	58	70.6	1	2	315	0.00	29.829 
16:55	87.6	87.6	93.4	58	71.0	0	2	315	0.00	29.829 
17:00	88.4	88.4	94.6	57	71.2	0	3	315	0.00	29.828 
17:05	89.0	89.0	95.9	57	71.7	1	4	292	0.00	29.828 
17:10	89.3	89.3	96.0	56	71.5	0	3	292	0.00	29.828 
17:15	89.0	89.0	95.4	56	71.2	0	2	315	0.00	29.827 
17:20	88.0	88.0	95.1	60	72.3	1	3	315	0.00	29.827 
17:25	87.4	87.4	94.8	62	72.7	1	5	270	0.00	29.827 
17:30	87.2	87.2	93.9	61	72.1	2	4	270	0.00	29.832 
17:35	86.7	86.7	92.5	60	71.1	1	4	315	0.00	29.832 
17:40	86.7	86.7	93.3	62	72.1	1	4	315	0.00	29.832 
17:45	86.7	86.7	92.5	60	71.1	3	7	270	0.00	29.832 
17:50	86.3	86.3	92.1	61	71.2	2	4	292	0.00	29.832 
17:55	86.5	86.5	92.5	61	71.4	0	2	292	0.00	29.832 
18:00	86.3	86.3	92.1	61	71.2	0	2	315	0.00	29.831 
18:05	85.9	85.9	90.9	60	70.4	1	3	292	0.00	29.831 
18:10	85.7	85.7	90.5	60	70.2	2	5	315	0.00	29.831 
18:15	85.5	85.5	90.2	60	70.0	1	4	270	0.00	29.832 
18:20	85.5	85.5	89.8	59	69.5	2	5	315	0.00	29.832 
18:25	85.3	85.3	88.8	57	68.3	2	3	315	0.00	29.832 
18:30	85.5	85.5	89.2	57	68.5	1	5	292	0.00	29.834 
18:35	86.1	86.1	89.9	56	68.5	1	4	292	0.00	29.834 
18:40	86.1	86.1	89.2	54	67.5	2	5	315	0.00	29.834 
18:45	86.1	86.1	89.6	55	68.0	1	4	270	0.00	29.834 
18:50	86.1	86.1	89.6	55	68.0	1	3	338	0.00	29.834 
18:55	85.9	85.9	88.6	53	66.7	2	5	270	0.00	29.834 
19:00	85.7	85.7	88.6	54	67.1	1	3	315	0.00	29.833 
19:05	85.3	85.3	88.0	54	66.7	1	3	315	0.00	29.833 
19:10	85.1	85.1	87.4	53	66.0	2	5	292	0.00	29.833 
19:15	84.9	84.9	87.3	54	66.4	2	5	270	0.00	29.830 
19:20	84.7	84.7	87.0	54	66.2	1	4	315	0.00	29.830 
19:25	84.5	84.5	86.7	54	66.0	1	4	315	0.00	29.830 
19:30	84.3	84.3	86.5	54	65.8	1	3	315	0.00	29.830 
19:35	84.1	84.1	86.2	54	65.6	2	4	315	0.00	29.830 
19:40	84.0	84.0	86.3	55	66.1	1	5	270	0.00	29.830 
19:45	83.6	83.6	85.9	56	66.2	0	2	338	0.00	29.840 
19:50	83.4	83.4	85.8	57	66.5	1	5	315	0.00	29.840 
19:55	83.2	83.2	85.6	57	66.4	1	3	338	0.00	29.840 
20:00	83.0	83.0	85.3	57	66.2	1	3	338	0.00	29.847 
20:05	82.8	82.8	85.2	58	66.5	1	4	292	0.00	29.847 
20:10	82.6	82.6	84.7	57	65.8	1	3	292	0.00	29.847 
20:15	82.4	82.4	84.4	57	65.6	1	2	315	0.00	29.845 
20:20	82.2	82.2	84.3	58	65.9	0	2	315	0.00	29.845 
20:25	82.0	82.0	84.1	58	65.7	1	2	315	0.00	29.845 
20:30	81.6	81.6	83.5	58	65.4	0	3	315	0.00	29.852 
20:35	81.6	81.6	83.5	58	65.4	0	2	315	0.00	29.852 
20:40	81.4	81.4	83.3	58	65.2	1	3	315	0.00	29.852 
20:45	81.2	81.2	82.9	57	64.5	1	2	315	0.00	29.861 
20:50	81.2	81.2	82.7	56	64.0	0	3	315	0.00	29.861 
20:55	81.1	81.1	82.5	55	63.4	1	4	270	0.00	29.861 
21:00	80.9	80.9	82.4	56	63.7	1	3	270	0.00	29.865 
21:05	80.7	80.7	82.2	56	63.5	0	3	270	0.00	29.865 
21:10	80.5	80.5	81.9	56	63.3	1	3	270	0.00	29.865 
21:15	80.3	80.3	81.7	56	63.1	0	2	270	0.00	29.866 
21:20	80.1	80.1	81.5	56	63.0	1	3	292	0.00	29.866 
21:25	79.9	79.9	81.4	57	63.3	1	2	292	0.00	29.866 
21:30	79.6	79.6	81.0	56	62.5	1	3	292	0.00	29.874 
21:35	79.4	79.4	80.8	56	62.3	0	2	292	0.00	29.874 
21:40	79.0	79.0	80.4	56	61.9	1	3	292	0.00	29.874 
21:45	78.8	78.8	80.2	56	61.8	0	3	292	0.00	29.881 
21:50	78.5	78.5	79.9	56	61.5	0	2	292	0.00	29.881 
21:55	78.3	78.3	79.8	56	61.3	0	1	292	0.00	29.881 
22:00	77.9	77.9	79.4	56	60.9	0	2	292	0.00	29.892 
22:05	77.7	77.7	79.2	55	60.2	0	2	292	0.00	29.892 
22:10	77.6	77.6	79.2	55	60.1	0	2	292	0.00	29.892 
22:15	77.4	77.4	79.0	56	60.5	0	2	292	0.00	29.897 
22:20	77.2	77.2	78.9	56	60.3	0	1	292	0.00	29.897 
22:25	77.0	77.0	78.7	57	60.6	0	1	292	0.00	29.897 
22:30	76.7	76.7	78.5	57	60.3	0	1	292	0.00	29.894 
22:35	76.5	76.5	78.4	58	60.6	0	1	292	0.00	29.894 
22:40	76.3	76.3	78.2	58	60.4	0	0	---	0.00	29.894 
22:45	76.0	76.0	78.0	59	60.6	0	1	292	0.00	29.902 
22:50	75.8	75.8	77.9	60	60.9	0	1	292	0.00	29.902 
22:55	75.4	75.4	77.6	60	60.5	0	1	292	0.00	29.902 
23:00	75.3	75.3	77.5	61	60.9	0	1	292	0.00	29.903 
23:05	74.9	74.9	74.9	61	60.5	0	1	292	0.00	29.903 
23:10	74.7	74.7	74.7	61	60.3	0	1	292	0.00	29.903 
23:15	74.6	74.6	74.6	62	60.7	0	1	292	0.00	29.907 
23:20	74.4	74.4	74.4	62	60.5	0	0	---	0.00	29.907 
23:25	74.0	74.0	74.0	63	60.6	0	0	---	0.00	29.907 
23:30	73.7	73.7	73.7	64	60.7	0	0	---	0.00	29.909 
23:35	73.5	73.5	73.5	65	61.0	0	0	---	0.00	29.909 
23:40	73.3	73.3	73.3	66	61.2	0	0	---	0.00	29.909 
23:45	73.2	73.2	73.2	66	61.1	0	1	292	0.00	29.910 
23:50	73.2	73.2	73.2	67	61.6	0	1	292	0.00	29.910 
23:55	73.0	73.0	73.0	67	61.4	0	1	292	0.00	29.910 

CoCoRaHS
IN-AL-39
A2 Web Hosting
Creative Commons License
GoDaddy
search engine by freefind advanced

loaded 2018-11-14 04:18:50 • last modified 2010-11-18 10:43:29
Privacy PolicyDisclaimer
• wx.awcolley.com is powered by PmWiki v.2002016 •
• all content (unless otherwise noted) © 2018 A W Colley